createdAt,value
2022-11-28T00:03:00.866Z,46.20
2022-11-28T00:06:22.974Z,43.00
2022-11-28T00:09:25.286Z,47.30
2022-11-28T00:12:27.694Z,43.80
2022-11-28T00:15:29.388Z,46.00
2022-11-28T00:18:32.220Z,44.50
2022-11-28T00:21:34.248Z,43.80
2022-11-28T00:24:35.961Z,43.80
2022-11-28T00:30:39.340Z,42.40
2022-11-28T00:36:45.294Z,40.80
2022-11-28T00:39:47.087Z,41.40
2022-11-28T00:45:50.431Z,42.40
2022-11-28T00:51:53.725Z,44.50
2022-11-28T00:54:55.442Z,44.20
2022-11-28T01:00:58.948Z,43.50
2022-11-28T01:04:03.379Z,41.30
2022-11-28T01:07:05.061Z,43.50
2022-11-28T01:16:11.673Z,43.10
2022-11-28T01:19:14.944Z,43.30
2022-11-28T01:22:19.836Z,42.60
2022-11-28T01:28:23.221Z,37.30
2022-11-28T01:34:27.679Z,42.00
2022-11-28T01:37:30.419Z,42.50
2022-11-28T01:40:32.081Z,42.90
2022-11-28T01:43:34.783Z,42.70
2022-11-28T01:46:37.154Z,43.60
2022-11-28T01:49:38.956Z,43.40
2022-11-28T01:55:49.069Z,43.10
2022-11-28T01:58:53.481Z,43.50
2022-11-28T02:01:55.343Z,46.50
2022-11-28T02:04:58.407Z,47.90
2022-11-28T02:08:00.138Z,46.60
2022-11-28T02:11:27.077Z,44.10
2022-11-28T02:15:02.623Z,45.10
2022-11-28T02:18:50.758Z,45.00
2022-11-28T02:21:59.837Z,47.20
2022-11-28T02:25:18.965Z,48.60
2022-11-28T02:28:35.519Z,46.50
2022-11-28T02:32:15.185Z,45.70
2022-11-28T02:35:29.509Z,44.50
2022-11-28T02:38:40.376Z,41.50
2022-11-28T02:41:46.387Z,44.50
2022-11-28T02:45:19.025Z,46.20
2022-11-28T02:48:36.227Z,43.60
2022-11-28T02:51:44.221Z,44.40
2022-11-28T02:54:46.433Z,43.10
2022-11-28T02:57:50.704Z,44.20
2022-11-28T03:00:52.652Z,44.50
2022-11-28T03:04:03.448Z,44.40
2022-11-28T03:07:19.171Z,44.50
2022-11-28T03:10:28.379Z,44.60
2022-11-28T03:13:38.934Z,44.50
2022-11-28T03:16:49.175Z,44.00
2022-11-28T03:20:15.187Z,42.70
2022-11-28T03:23:20.244Z,44.60
2022-11-28T03:26:29.555Z,46.60
2022-11-28T03:29:41.780Z,44.50
2022-11-28T03:32:43.659Z,43.00
2022-11-28T03:35:49.503Z,43.20
2022-11-28T03:38:55.294Z,42.60
2022-11-28T03:42:05.639Z,41.90
2022-11-28T03:45:25.935Z,41.20
2022-11-28T03:48:35.019Z,40.40
2022-11-28T03:51:49.950Z,42.10
2022-11-28T03:55:12.069Z,41.30
2022-11-28T03:58:21.389Z,42.10
2022-11-28T04:01:26.339Z,38.40
2022-11-28T04:05:00.909Z,38.30
2022-11-28T04:08:18.401Z,38.50
2022-11-28T04:11:25.516Z,37.20
2022-11-28T04:14:32.604Z,37.30
2022-11-28T04:17:52.934Z,35.50
2022-11-28T04:21:03.420Z,34.80
2022-11-28T04:24:21.246Z,36.00
2022-11-28T04:27:27.018Z,38.10
2022-11-28T04:30:28.741Z,36.50
2022-11-28T04:36:36.128Z,38.20
2022-11-28T04:39:38.533Z,36.90
2022-11-28T04:42:47.516Z,36.10
2022-11-28T04:45:56.419Z,33.90
2022-11-28T04:48:59.024Z,32.50
2022-11-28T04:52:09.317Z,31.40
2022-11-28T04:55:33.836Z,31.70
2022-11-28T04:58:38.675Z,35.10
2022-11-28T05:01:42.173Z,32.30
2022-11-28T05:04:45.049Z,31.10
2022-11-28T05:07:47.024Z,29.30
2022-11-28T05:10:48.849Z,30.20
2022-11-28T05:16:52.566Z,27.50
2022-11-28T05:19:54.374Z,29.20
2022-11-28T05:25:58.064Z,28.10
2022-11-28T05:28:59.881Z,29.40
2022-11-28T05:35:04.390Z,31.00
2022-11-28T05:38:09.390Z,30.90
2022-11-28T05:41:23.536Z,30.30
2022-11-28T05:44:27.071Z,30.40
2022-11-28T05:47:33.281Z,29.10
2022-11-28T05:50:39.777Z,30.00
2022-11-28T05:53:42.234Z,28.30
2022-11-28T05:56:43.999Z,29.10
2022-11-28T05:59:45.975Z,27.30
2022-11-28T06:02:47.765Z,28.70
2022-11-28T06:05:49.867Z,30.30
2022-11-28T06:08:52.521Z,26.80
2022-11-28T06:11:54.394Z,29.30
2022-11-28T06:17:57.741Z,27.70
2022-11-28T06:21:02.820Z,29.70
2022-11-28T06:24:04.719Z,35.90
2022-11-28T06:27:06.370Z,33.00
2022-11-28T06:33:09.886Z,27.00
2022-11-28T06:36:13.231Z,27.70
2022-11-28T06:39:17.078Z,27.80
2022-11-28T06:42:19.988Z,29.30
2022-11-28T06:45:21.662Z,28.20
2022-11-28T06:48:24.044Z,28.90
2022-11-28T06:51:25.869Z,27.90
2022-11-28T06:57:29.305Z,23.70
2022-11-28T07:03:32.784Z,22.80
2022-11-28T07:12:38.367Z,21.70
2022-11-28T07:21:43.958Z,19.30
2022-11-28T07:24:48.425Z,20.00
2022-11-28T07:27:50.215Z,18.90
2022-11-28T07:31:06.613Z,20.30
2022-11-28T07:34:09.201Z,19.30
2022-11-28T07:37:10.939Z,18.50
2022-11-28T07:43:15.385Z,20.40
2022-11-28T07:49:19.616Z,24.80
2022-11-28T07:55:23.043Z,18.20
2022-11-28T07:58:24.821Z,16.70
2022-11-28T08:04:30.341Z,16.20
2022-11-28T08:07:32.157Z,15.20
2022-11-28T08:10:33.953Z,16.10
2022-11-28T08:16:41.422Z,14.70
2022-11-28T08:19:43.129Z,14.80
2022-11-28T08:25:46.433Z,14.70
2022-11-28T08:31:49.909Z,13.70
2022-11-28T08:34:51.623Z,14.70
2022-11-28T08:37:54.787Z,15.30
2022-11-28T08:41:08.138Z,17.80
2022-11-28T08:44:09.855Z,16.50
2022-11-28T08:47:11.562Z,16.10
2022-11-28T08:53:18.652Z,15.90
2022-11-28T08:56:20.469Z,17.50
2022-11-28T08:59:22.284Z,17.10
2022-11-28T09:05:29.130Z,16.00
2022-11-28T09:08:30.749Z,16.50
2022-11-28T09:14:34.336Z,16.70
2022-11-28T09:20:37.780Z,18.30
2022-11-28T09:23:43.616Z,16.20
2022-11-28T09:26:45.267Z,15.80
2022-11-28T09:29:46.945Z,18.90
2022-11-28T09:35:55.462Z,16.90
2022-11-28T09:39:00.382Z,18.60
2022-11-28T09:42:22.586Z,22.60
2022-11-28T09:45:24.981Z,19.50
2022-11-28T09:48:32.774Z,16.20
2022-11-28T09:51:39.832Z,14.90
2022-11-28T09:54:52.983Z,13.70
2022-11-28T09:57:54.960Z,11.90
2022-11-28T10:01:11.775Z,13.30
2022-11-28T10:04:38.248Z,13.10
2022-11-28T10:08:10.966Z,12.10
2022-11-28T10:11:34.514Z,12.70
2022-11-28T10:14:48.475Z,13.40
2022-11-28T10:17:53.059Z,12.80
2022-11-28T10:21:03.487Z,12.50
2022-11-28T10:24:14.706Z,10.70
2022-11-28T10:27:17.444Z,10.90
2022-11-28T10:30:36.155Z,10.40
2022-11-28T10:33:49.235Z,10.80
2022-11-28T10:36:57.452Z,10.40
2022-11-28T10:40:16.533Z,11.40
2022-11-28T10:43:29.544Z,13.30
2022-11-28T10:46:58.005Z,11.50
2022-11-28T10:50:08.572Z,11.10
2022-11-28T10:53:33.043Z,10.30
2022-11-28T10:56:59.772Z,10.90
2022-11-28T11:00:13.558Z,10.10
2022-11-28T11:03:17.782Z,10.70
2022-11-28T11:06:19.560Z,9.40
2022-11-28T11:09:21.463Z,9.60
2022-11-28T11:12:27.554Z,10.10
2022-11-28T11:15:33.513Z,11.60
2022-11-28T11:18:52.188Z,10.60
2022-11-28T11:22:05.528Z,10.10
2022-11-28T11:25:15.919Z,10.10
2022-11-28T11:28:32.894Z,10.20
2022-11-28T11:31:44.815Z,10.10
2022-11-28T11:34:46.997Z,10.30
2022-11-28T11:37:48.837Z,11.70
2022-11-28T11:40:51.460Z,10.70
2022-11-28T11:43:53.156Z,10.70
2022-11-28T11:46:58.235Z,10.20
2022-11-28T11:50:04.906Z,11.60
2022-11-28T11:53:10.136Z,11.20
2022-11-28T11:56:12.624Z,10.40
2022-11-28T11:59:19.337Z,10.70
2022-11-28T12:02:47.186Z,9.60
2022-11-28T12:09:25.133Z,10.30
2022-11-28T12:12:30.844Z,10.60
2022-11-28T12:15:44.866Z,10.50
2022-11-28T12:18:56.179Z,10.80
2022-11-28T12:22:36.024Z,13.90
2022-11-28T12:25:45.045Z,13.70
2022-11-28T12:28:59.054Z,12.40
2022-11-28T12:32:06.617Z,12.50
2022-11-28T12:35:41.269Z,11.70
2022-11-28T12:39:01.963Z,12.70
2022-11-28T12:42:09.443Z,12.00
2022-11-28T12:45:49.680Z,11.40
2022-11-28T12:48:58.705Z,11.50
2022-11-28T12:52:22.895Z,11.10
2022-11-28T12:55:39.925Z,9.90
2022-11-28T12:59:08.814Z,11.00
2022-11-28T13:02:39.013Z,9.60
2022-11-28T13:05:50.189Z,8.90
2022-11-28T13:09:11.962Z,7.20
2022-11-28T13:15:31.835Z,6.60
2022-11-28T13:18:49.025Z,6.40
2022-11-28T13:22:07.993Z,6.10
2022-11-28T13:25:36.833Z,7.00
2022-11-28T13:28:45.256Z,6.30
2022-11-28T13:32:15.051Z,6.60
2022-11-28T13:35:18.754Z,6.40
2022-11-28T13:38:39.773Z,6.10
2022-11-28T13:43:02.133Z,6.80
2022-11-28T13:45:40.616Z,6.50
2022-11-28T13:52:17.733Z,6.50
2022-11-28T13:55:52.882Z,8.20
2022-11-28T13:59:00.858Z,7.50
2022-11-28T14:02:05.805Z,7.30
2022-11-28T14:05:26.364Z,7.80
2022-11-28T14:08:38.249Z,9.00
2022-11-28T14:12:05.165Z,8.80
2022-11-28T14:15:31.409Z,9.80
2022-11-28T14:18:56.737Z,8.80
2022-11-28T14:22:15.602Z,9.00
2022-11-28T14:25:31.777Z,9.40
2022-11-28T14:28:36.924Z,16.30
2022-11-28T14:31:39.181Z,14.10
2022-11-28T14:34:44.291Z,16.50
2022-11-28T14:37:55.644Z,26.50
2022-11-28T14:40:57.488Z,24.40
2022-11-28T14:44:37.016Z,19.70
2022-11-28T14:47:43.245Z,15.80
2022-11-28T14:51:00.649Z,20.70
2022-11-28T14:54:23.096Z,41.20
2022-11-28T14:57:33.059Z,28.00
2022-11-28T15:00:47.508Z,22.50
2022-11-28T15:04:00.300Z,21.80
2022-11-28T15:07:03.428Z,33.90
2022-11-28T15:10:20.705Z,37.20
2022-11-28T15:13:48.195Z,40.50
2022-11-28T15:16:53.220Z,29.60
2022-11-28T15:19:56.216Z,28.90
2022-11-28T15:22:57.914Z,31.70
2022-11-28T15:29:21.415Z,19.40
2022-11-28T15:32:24.287Z,18.70
2022-11-28T15:35:26.961Z,19.40
2022-11-28T15:38:30.500Z,23.10
2022-11-28T15:41:32.197Z,27.40
2022-11-28T15:47:39.654Z,30.30
2022-11-28T15:50:50.377Z,29.30
2022-11-28T15:53:52.051Z,32.50
2022-11-28T15:56:58.021Z,30.80
2022-11-28T16:00:01.535Z,31.30
2022-11-28T16:03:03.590Z,27.30
2022-11-28T16:06:06.194Z,22.70
2022-11-28T16:09:24.923Z,21.90
2022-11-28T16:12:27.749Z,21.50
2022-11-28T16:15:30.209Z,23.60
2022-11-28T16:18:32.011Z,32.90
2022-11-28T16:24:47.319Z,56.50
2022-11-28T16:27:53.242Z,42.30
2022-11-28T16:30:54.905Z,38.40
2022-11-28T16:33:57.121Z,35.10
2022-11-28T16:36:58.854Z,31.50
2022-11-28T16:40:04.944Z,31.30
2022-11-28T16:43:23.619Z,29.00
2022-11-28T16:46:30.008Z,34.60
2022-11-28T16:49:43.957Z,37.20
2022-11-28T16:52:57.740Z,35.10
2022-11-28T16:55:59.377Z,36.30
2022-11-28T16:59:21.022Z,39.00
2022-11-28T17:02:24.721Z,35.20
2022-11-28T17:05:26.542Z,33.30
2022-11-28T17:11:35.095Z,30.70
2022-11-28T17:14:37.954Z,28.60
2022-11-28T17:17:39.547Z,27.10
2022-11-28T17:23:43.529Z,31.40
2022-11-28T17:26:46.500Z,33.70
2022-11-28T17:29:48.261Z,33.20
2022-11-28T17:35:54.870Z,31.40
2022-11-28T17:38:58.794Z,29.20
2022-11-28T17:42:05.110Z,28.40
2022-11-28T17:45:13.457Z,32.90
2022-11-28T17:48:16.344Z,36.70
2022-11-28T17:51:18.136Z,33.30
2022-11-28T17:54:21.829Z,31.80
2022-11-28T17:57:23.537Z,36.40
2022-11-28T18:00:25.558Z,35.20
2022-11-28T18:03:28.305Z,42.90
2022-11-28T18:06:30.840Z,57.20
2022-11-28T18:09:32.440Z,67.20
2022-11-28T18:12:34.139Z,54.80
2022-11-28T18:15:39.410Z,48.70
2022-11-28T18:18:41.448Z,46.80
2022-11-28T18:21:43.169Z,42.50
2022-11-28T18:24:44.876Z,43.80
2022-11-28T18:27:46.516Z,59.70
2022-11-28T18:30:48.279Z,52.90
2022-11-28T18:36:58.551Z,43.00
2022-11-28T18:40:01.114Z,45.60
2022-11-28T18:43:05.435Z,42.90
2022-11-28T18:46:10.124Z,50.40
2022-11-28T18:49:12.527Z,53.60
2022-11-28T18:52:14.168Z,49.40
2022-11-28T18:55:16.017Z,48.20
2022-11-28T19:01:28.749Z,53.90
2022-11-28T19:04:30.589Z,56.60
2022-11-28T19:07:32.358Z,47.80
2022-11-28T19:10:38.390Z,51.60
2022-11-28T19:13:41.485Z,49.90
2022-11-28T19:16:45.088Z,45.40
2022-11-28T19:19:47.186Z,57.50
2022-11-28T19:22:48.860Z,49.30
2022-11-28T19:25:50.606Z,63.00
2022-11-28T19:31:54.553Z,52.00
2022-11-28T19:34:56.445Z,50.70
2022-11-28T19:37:58.269Z,50.60
2022-11-28T19:41:08.393Z,55.80
2022-11-28T19:44:11.492Z,57.60
2022-11-28T19:47:13.178Z,52.90
2022-11-28T19:50:15.316Z,50.50
2022-11-28T19:53:17.803Z,47.20
2022-11-28T19:56:21.203Z,47.30
2022-11-28T19:59:23.029Z,55.50
2022-11-28T20:02:24.726Z,46.30
2022-11-28T20:05:26.437Z,50.60
2022-11-28T20:08:28.839Z,55.40
2022-11-28T20:11:33.607Z,56.00
2022-11-28T20:14:35.394Z,99.80
2022-11-28T20:20:38.928Z,69.80
2022-11-28T20:23:45.257Z,54.80
2022-11-28T20:26:46.881Z,58.40
2022-11-28T20:29:48.865Z,51.60
2022-11-28T20:32:50.637Z,58.80
2022-11-28T20:35:56.966Z,61.90
2022-11-28T20:39:02.000Z,68.60
2022-11-28T20:42:04.182Z,55.80
2022-11-28T20:45:06.470Z,50.80
2022-11-28T20:48:08.241Z,50.90
2022-11-28T20:51:15.943Z,53.70
2022-11-28T20:54:18.254Z,53.60
2022-11-28T20:57:21.668Z,52.30
2022-11-28T21:00:26.737Z,54.40
2022-11-28T21:03:28.866Z,55.50
2022-11-28T21:06:30.788Z,51.30
2022-11-28T21:09:32.501Z,51.30
2022-11-28T21:12:34.225Z,52.30
2022-11-28T21:18:43.492Z,76.00
2022-11-28T21:21:45.301Z,84.00
2022-11-28T21:27:52.227Z,58.40
2022-11-28T21:33:57.210Z,46.70
2022-11-28T21:36:58.859Z,47.50
2022-11-28T21:40:00.658Z,44.60
2022-11-28T21:46:07.516Z,41.10
2022-11-28T21:49:09.319Z,48.30
2022-11-28T21:52:11.637Z,48.50
2022-11-28T21:55:13.454Z,46.60
2022-11-28T21:58:15.135Z,47.60
2022-11-28T22:01:17.218Z,44.80
2022-11-28T22:04:21.971Z,45.50
2022-11-28T22:07:23.728Z,45.70
2022-11-28T22:13:28.229Z,59.90
2022-11-28T22:16:30.132Z,64.50
2022-11-28T22:19:32.140Z,58.90
2022-11-28T22:22:33.890Z,76.70
2022-11-28T22:28:38.677Z,84.20
2022-11-28T22:31:40.539Z,93.40
2022-11-28T22:34:42.671Z,96.40
2022-11-28T22:37:45.311Z,69.20
2022-11-28T22:40:47.474Z,63.30
2022-11-28T22:43:49.450Z,72.40
2022-11-28T22:46:51.207Z,73.30
2022-11-28T22:49:52.939Z,83.50
2022-11-28T22:55:56.269Z,67.00
2022-11-28T23:02:00.046Z,61.10
2022-11-28T23:05:01.826Z,58.90
2022-11-28T23:08:03.584Z,49.10
2022-11-28T23:14:13.307Z,50.30
2022-11-28T23:17:15.001Z,48.00
2022-11-28T23:20:18.143Z,46.60
2022-11-28T23:23:19.782Z,44.70
2022-11-28T23:26:23.880Z,45.20
2022-11-28T23:29:25.595Z,44.30
2022-11-28T23:32:27.489Z,43.80
2022-11-28T23:35:29.130Z,45.10
2022-11-28T23:38:30.803Z,45.50
2022-11-28T23:41:33.115Z,43.50
2022-11-28T23:44:34.935Z,42.50
2022-11-28T23:47:36.576Z,39.60
2022-11-28T23:50:38.492Z,45.40
2022-11-28T23:56:43.497Z,52.00
2022-11-28T23:59:45.322Z,52.40
